createdAt,value
2018-09-08T00:00:02.397Z,3.03
2018-09-08T00:03:06.237Z,2.70
2018-09-08T00:06:10.059Z,3.30
2018-09-08T00:09:13.690Z,2.50
2018-09-08T00:12:17.348Z,2.70
2018-09-08T00:15:26.127Z,2.70
2018-09-08T00:18:35.054Z,2.97
2018-09-08T00:21:43.669Z,2.70
2018-09-08T00:24:52.549Z,3.43
2018-09-08T00:28:32.451Z,3.00
2018-09-08T00:31:36.132Z,3.77
2018-09-08T00:34:40.146Z,3.60
2018-09-08T00:37:44.524Z,3.40
2018-09-08T00:40:48.117Z,3.30
2018-09-08T00:43:51.789Z,3.60
2018-09-08T00:46:55.538Z,3.77
2018-09-08T00:49:59.171Z,3.63
2018-09-08T00:53:02.822Z,3.60
2018-09-08T00:56:07.242Z,3.90
2018-09-08T00:59:10.777Z,3.60
2018-09-08T01:02:14.544Z,3.90
2018-09-08T01:05:18.218Z,4.37
2018-09-08T01:08:21.762Z,4.67
2018-09-08T01:11:25.727Z,4.20
2018-09-08T01:14:29.317Z,3.80
2018-09-08T01:17:33.050Z,3.70
2018-09-08T01:20:36.644Z,4.43
2018-09-08T01:23:40.424Z,3.83
2018-09-08T01:26:44.105Z,3.80
2018-09-08T01:29:47.760Z,4.40
2018-09-08T01:32:51.323Z,3.70
2018-09-08T01:35:55.280Z,4.00
2018-09-08T01:38:58.923Z,3.70
2018-09-08T01:42:02.510Z,3.93
2018-09-08T01:45:06.464Z,3.93
2018-09-08T01:48:10.155Z,4.60
2018-09-08T01:51:13.723Z,4.10
2018-09-08T01:54:17.358Z,4.00
2018-09-08T01:57:20.971Z,4.23
2018-09-08T02:00:24.594Z,4.10
2018-09-08T02:03:28.204Z,3.70
2018-09-08T02:06:31.794Z,3.90
2018-09-08T02:09:35.436Z,4.30
2018-09-08T02:12:39.105Z,3.87
2018-09-08T02:15:42.730Z,3.90
2018-09-08T02:18:46.344Z,3.90
2018-09-08T02:21:50.014Z,4.47
2018-09-08T02:24:53.834Z,4.17
2018-09-08T02:27:57.384Z,3.77
2018-09-08T02:31:01.336Z,4.07
2018-09-08T02:34:04.986Z,3.73
2018-09-08T02:37:08.556Z,4.40
2018-09-08T02:40:12.176Z,4.10
2018-09-08T02:43:15.882Z,3.90
2018-09-08T02:46:19.489Z,5.07
2018-09-08T02:49:23.770Z,4.03
2018-09-08T02:52:26.158Z,4.13
2018-09-08T02:55:28.943Z,4.07
2018-09-08T02:58:31.274Z,3.93
2018-09-08T03:01:33.779Z,4.30
2018-09-08T03:04:36.070Z,5.03
2018-09-08T03:07:38.433Z,4.27
2018-09-08T03:10:40.739Z,4.57
2018-09-08T03:13:43.088Z,5.07
2018-09-08T03:16:45.374Z,4.10
2018-09-08T03:19:47.716Z,4.53
2018-09-08T03:22:50.026Z,4.40
2018-09-08T03:25:52.349Z,4.60
2018-09-08T03:28:54.760Z,5.20
2018-09-08T03:31:57.081Z,5.23
2018-09-08T03:34:59.396Z,4.10
2018-09-08T03:38:01.842Z,4.70
2018-09-08T03:41:04.158Z,4.33
2018-09-08T03:44:06.537Z,5.40
2018-09-08T03:47:08.835Z,4.97
2018-09-08T03:50:11.246Z,4.63
2018-09-08T03:53:13.664Z,5.00
2018-09-08T03:56:15.964Z,5.17
2018-09-08T03:59:18.281Z,5.20
2018-09-08T04:02:20.571Z,5.27
2018-09-08T04:05:24.155Z,5.30
2018-09-08T04:08:27.845Z,5.00
2018-09-08T04:11:31.482Z,5.90
2018-09-08T04:14:36.047Z,5.30
2018-09-08T04:17:40.096Z,4.83
2018-09-08T04:20:43.791Z,5.53
2018-09-08T04:23:47.320Z,5.80
2018-09-08T04:26:51.825Z,5.83
2018-09-08T04:29:55.479Z,5.97
2018-09-08T04:32:59.155Z,5.57
2018-09-08T04:36:03.507Z,5.80
2018-09-08T04:39:09.335Z,5.60
2018-09-08T04:42:12.939Z,5.73
2018-09-08T04:45:16.656Z,5.60
2018-09-08T04:48:20.336Z,5.77
2018-09-08T04:51:23.977Z,6.07
2018-09-08T04:54:27.667Z,5.40
2018-09-08T04:57:31.320Z,6.20
2018-09-08T05:00:35.341Z,6.37
2018-09-08T05:03:39.771Z,6.50
2018-09-08T05:06:43.430Z,6.17
2018-09-08T05:09:47.042Z,6.37
2018-09-08T05:12:50.727Z,6.30
2018-09-08T05:15:54.291Z,6.90
2018-09-08T05:18:57.912Z,6.20
2018-09-08T05:22:01.502Z,6.70
2018-09-08T05:25:05.180Z,6.53
2018-09-08T05:28:08.770Z,6.17
2018-09-08T05:31:12.395Z,6.20
2018-09-08T05:34:16.011Z,6.70
2018-09-08T05:37:19.620Z,6.47
2018-09-08T05:40:23.247Z,6.60
2018-09-08T05:43:26.918Z,6.57
2018-09-08T05:46:30.512Z,6.47
2018-09-08T05:49:34.197Z,6.60
2018-09-08T05:52:37.891Z,7.40
2018-09-08T05:55:41.513Z,7.37
2018-09-08T05:58:45.167Z,7.10
2018-09-08T06:01:48.759Z,7.33
2018-09-08T06:04:52.394Z,6.87
2018-09-08T06:07:56.076Z,7.10
2018-09-08T06:10:59.716Z,5.97
2018-09-08T06:14:03.471Z,7.17
2018-09-08T06:17:07.140Z,6.20
2018-09-08T06:20:10.770Z,6.43
2018-09-08T06:23:14.421Z,6.63
2018-09-08T06:26:18.113Z,6.37
2018-09-08T06:29:21.783Z,6.40
2018-09-08T06:32:25.381Z,6.50
2018-09-08T06:35:29.191Z,7.00
2018-09-08T06:38:32.813Z,6.07
2018-09-08T06:41:36.573Z,6.90
2018-09-08T06:44:40.307Z,7.80
2018-09-08T06:47:44.054Z,7.53
2018-09-08T06:50:47.721Z,6.87
2018-09-08T06:53:51.363Z,6.40
2018-09-08T06:56:55.158Z,7.00
2018-09-08T06:59:58.815Z,6.90
2018-09-08T07:03:02.488Z,6.13
2018-09-08T07:06:06.182Z,7.00
2018-09-08T07:09:11.072Z,6.47
2018-09-08T07:12:14.718Z,6.23
2018-09-08T07:15:18.635Z,6.70
2018-09-08T07:18:22.198Z,7.00
2018-09-08T07:21:25.800Z,6.43
2018-09-08T07:24:29.572Z,6.80
2018-09-08T07:27:33.144Z,6.53
2018-09-08T07:30:36.792Z,7.30
2018-09-08T07:33:40.392Z,5.57
2018-09-08T07:36:44.748Z,6.00
2018-09-08T07:39:48.457Z,6.60
2018-09-08T07:42:52.219Z,6.33
2018-09-08T07:45:55.979Z,6.20
2018-09-08T07:48:59.603Z,6.10
2018-09-08T07:52:03.288Z,6.63
2018-09-08T07:55:06.929Z,5.73
2018-09-08T07:58:10.549Z,5.37
2018-09-08T08:01:14.374Z,5.73
2018-09-08T08:04:17.970Z,6.00
2018-09-08T08:07:21.642Z,5.93
2018-09-08T08:10:25.433Z,5.60
2018-09-08T08:13:29.027Z,5.70
2018-09-08T08:16:32.721Z,5.67
2018-09-08T08:19:37.020Z,5.60
2018-09-08T08:22:40.712Z,5.30
2018-09-08T08:25:44.362Z,5.83
2018-09-08T08:28:48.109Z,5.33
2018-09-08T08:31:51.769Z,5.47
2018-09-08T08:34:55.467Z,5.73
2018-09-08T08:37:59.225Z,5.10
2018-09-08T08:41:02.945Z,5.50
2018-09-08T08:44:06.857Z,4.63
2018-09-08T08:47:10.568Z,5.20
2018-09-08T08:50:25.218Z,4.67
2018-09-08T08:53:40.229Z,4.27
2018-09-08T08:56:43.850Z,3.97
2018-09-08T08:59:47.646Z,4.77
2018-09-08T09:02:51.454Z,4.20
2018-09-08T09:05:55.129Z,4.70
2018-09-08T09:08:58.845Z,4.07
2018-09-08T09:12:02.492Z,4.37
2018-09-08T09:15:06.313Z,3.97
2018-09-08T09:18:10.348Z,4.33
2018-09-08T09:21:25.137Z,4.60
2018-09-08T09:24:56.537Z,4.70
2018-09-08T09:28:00.128Z,4.33
2018-09-08T09:31:03.878Z,4.40
2018-09-08T09:34:07.625Z,3.50
2018-09-08T09:37:11.485Z,4.20
2018-09-08T09:40:16.593Z,4.50
2018-09-08T09:43:20.448Z,4.37
2018-09-08T09:46:24.095Z,4.00
2018-09-08T09:49:27.840Z,3.70
2018-09-08T09:52:31.386Z,4.50
2018-09-08T09:55:35.248Z,3.90
2018-09-08T09:58:39.059Z,4.00
2018-09-08T10:01:44.199Z,4.17
2018-09-08T10:04:47.836Z,4.27
2018-09-08T10:07:52.096Z,4.20
2018-09-08T10:10:55.780Z,4.60
2018-09-08T10:13:59.512Z,4.50
2018-09-08T10:17:03.322Z,4.40
2018-09-08T10:20:08.841Z,4.27
2018-09-08T10:23:12.590Z,4.60
2018-09-08T10:26:16.216Z,4.33
2018-09-08T10:29:19.844Z,4.40
2018-09-08T10:32:23.890Z,4.30
2018-09-08T10:35:27.653Z,3.97
2018-09-08T10:38:31.296Z,3.73
2018-09-08T10:41:35.084Z,4.43
2018-09-08T10:44:38.791Z,4.40
2018-09-08T10:47:42.474Z,4.10
2018-09-08T10:50:46.207Z,3.97
2018-09-08T10:53:49.826Z,4.47
2018-09-08T10:56:53.574Z,4.40
2018-09-08T10:59:57.501Z,4.47
2018-09-08T11:03:01.231Z,4.30
2018-09-08T11:06:05.077Z,4.17
2018-09-08T11:09:08.762Z,3.97
2018-09-08T11:12:12.604Z,4.73
2018-09-08T11:15:16.409Z,4.30
2018-09-08T11:18:20.161Z,4.60
2018-09-08T11:21:24.587Z,4.63
2018-09-08T11:24:28.270Z,3.70
2018-09-08T11:27:31.916Z,4.00
2018-09-08T11:30:35.706Z,3.50
2018-09-08T11:33:39.307Z,4.00
2018-09-08T11:36:43.115Z,4.00
2018-09-08T11:39:46.876Z,4.30
2018-09-08T11:42:51.771Z,3.60
2018-09-08T11:45:55.405Z,3.10
2018-09-08T11:48:59.115Z,3.60
2018-09-08T11:52:02.911Z,3.50
2018-09-08T11:55:06.777Z,3.40
2018-09-08T11:58:10.426Z,3.70
2018-09-08T12:01:14.316Z,3.50
2018-09-08T12:04:17.980Z,3.47
2018-09-08T12:07:21.687Z,3.80
2018-09-08T12:10:25.396Z,3.30
2018-09-08T12:13:29.133Z,3.50
2018-09-08T12:16:32.774Z,3.67
2018-09-08T12:19:36.497Z,3.37
2018-09-08T12:22:40.172Z,3.47
2018-09-08T12:25:43.892Z,3.47
2018-09-08T12:28:47.582Z,3.30
2018-09-08T12:31:51.332Z,3.80
2018-09-08T12:34:55.115Z,4.10
2018-09-08T12:37:58.807Z,3.10
2018-09-08T12:41:02.634Z,2.97
2018-09-08T12:44:06.487Z,3.50
2018-09-08T12:47:10.077Z,3.10
2018-09-08T12:50:13.758Z,3.80
2018-09-08T12:53:17.431Z,3.90
2018-09-08T12:56:21.204Z,3.60
2018-09-08T12:59:24.965Z,3.23
2018-09-08T13:02:28.901Z,3.43
2018-09-08T13:05:32.782Z,3.17
2018-09-08T13:08:36.442Z,2.83
2018-09-08T13:11:40.447Z,2.63
2018-09-08T13:14:44.360Z,3.40
2018-09-08T13:17:50.263Z,3.47
2018-09-08T13:20:54.057Z,3.40
2018-09-08T13:23:57.809Z,3.43
2018-09-08T13:27:01.600Z,3.60
2018-09-08T13:30:05.946Z,3.63
2018-09-08T13:33:09.771Z,3.60
2018-09-08T13:36:13.441Z,4.10
2018-09-08T13:39:17.528Z,3.37
2018-09-08T13:42:21.249Z,2.90
2018-09-08T13:45:24.958Z,3.30
2018-09-08T13:48:28.624Z,3.27
2018-09-08T13:51:32.344Z,3.20
2018-09-08T13:54:36.171Z,3.23
2018-09-08T13:57:39.839Z,3.20
2018-09-08T14:00:43.510Z,3.20
2018-09-08T14:03:47.239Z,3.03
2018-09-08T14:06:51.060Z,3.27
2018-09-08T14:09:54.644Z,3.00
2018-09-08T14:12:58.409Z,3.30
2018-09-08T14:16:02.117Z,3.47
2018-09-08T14:19:06.228Z,3.20
2018-09-08T14:22:09.901Z,3.80
2018-09-08T14:25:13.630Z,3.33
2018-09-08T14:28:18.446Z,3.70
2018-09-08T14:31:22.251Z,3.37
2018-09-08T14:34:25.924Z,3.33
2018-09-08T14:37:29.582Z,3.73
2018-09-08T14:40:33.360Z,3.87
2018-09-08T14:43:37.132Z,3.73
2018-09-08T14:46:40.763Z,3.40
2018-09-08T14:49:44.444Z,3.10
2018-09-08T14:52:48.397Z,3.60
2018-09-08T14:55:52.069Z,3.33
2018-09-08T14:58:55.748Z,3.30
2018-09-08T15:01:59.679Z,3.40
2018-09-08T15:05:03.455Z,3.47
2018-09-08T15:08:07.222Z,3.70
2018-09-08T15:11:11.358Z,3.20
2018-09-08T15:14:15.109Z,3.67
2018-09-08T15:17:18.745Z,3.50
2018-09-08T15:20:22.438Z,3.60
2018-09-08T15:23:26.185Z,3.00
2018-09-08T15:26:29.995Z,3.60
2018-09-08T15:29:33.628Z,3.13
2018-09-08T15:32:37.384Z,3.50
2018-09-08T15:35:41.055Z,3.43
2018-09-08T15:38:44.855Z,3.10
2018-09-08T15:41:48.563Z,3.17
2018-09-08T15:44:52.220Z,3.80
2018-09-08T15:47:55.890Z,3.63
2018-09-08T15:50:59.716Z,4.00
2018-09-08T15:54:03.356Z,3.70
2018-09-08T15:57:07.112Z,3.77
2018-09-08T16:00:10.811Z,3.70
2018-09-08T16:03:14.573Z,3.80
2018-09-08T16:06:18.275Z,4.67
2018-09-08T16:09:21.954Z,3.70
2018-09-08T16:12:25.589Z,4.13
2018-09-08T16:15:29.309Z,3.87
2018-09-08T16:18:33.082Z,4.27
2018-09-08T16:21:36.910Z,4.00
2018-09-08T16:24:40.706Z,4.53
2018-09-08T16:27:44.437Z,5.00
2018-09-08T16:30:48.272Z,4.97
2018-09-08T16:33:51.961Z,4.80
2018-09-08T16:36:55.676Z,5.07
2018-09-08T16:39:59.464Z,5.00
2018-09-08T16:43:03.190Z,4.30
2018-09-08T16:46:07.244Z,4.40
2018-09-08T16:49:10.971Z,4.43
2018-09-08T16:52:14.838Z,4.30
2018-09-08T16:55:18.605Z,4.37
2018-09-08T16:58:22.316Z,5.10
2018-09-08T17:01:26.000Z,5.00
2018-09-08T17:04:30.986Z,4.77
2018-09-08T17:07:34.705Z,4.13
2018-09-08T17:10:38.395Z,4.70
2018-09-08T17:13:42.144Z,4.40
2018-09-08T17:16:45.921Z,4.10
2018-09-08T17:19:49.750Z,4.53
2018-09-08T17:22:54.296Z,5.03
2018-09-08T17:25:58.084Z,4.80
2018-09-08T17:29:01.949Z,4.30
2018-09-08T17:32:05.710Z,4.50
2018-09-08T17:35:09.397Z,4.90
2018-09-08T17:38:13.082Z,4.63
2018-09-08T17:41:16.900Z,4.50
2018-09-08T17:44:20.702Z,4.37
2018-09-08T17:47:24.491Z,4.87
2018-09-08T17:50:28.201Z,4.30
2018-09-08T17:53:32.073Z,4.37
2018-09-08T17:56:35.744Z,3.80
2018-09-08T17:59:39.436Z,4.57
2018-09-08T18:02:43.476Z,4.10
2018-09-08T18:05:47.337Z,4.50
2018-09-08T18:08:50.950Z,4.40
2018-09-08T18:11:54.671Z,4.03
2018-09-08T18:14:58.369Z,9.10
2018-09-08T18:18:02.042Z,5.13
2018-09-08T18:21:05.928Z,4.20
2018-09-08T18:24:09.731Z,4.27
2018-09-08T18:27:13.363Z,4.10
2018-09-08T18:30:17.097Z,4.00
2018-09-08T18:33:20.769Z,3.83
2018-09-08T18:36:24.992Z,4.10
2018-09-08T18:39:28.657Z,4.03
2018-09-08T18:42:32.422Z,3.80
2018-09-08T18:45:36.117Z,3.60
2018-09-08T18:48:39.908Z,3.87
2018-09-08T18:51:44.263Z,4.30
2018-09-08T18:54:48.016Z,4.27
2018-09-08T18:57:51.896Z,4.60
2018-09-08T19:00:55.699Z,3.90
2018-09-08T19:03:59.420Z,3.90
2018-09-08T19:07:03.243Z,3.83
2018-09-08T19:10:07.492Z,3.80
2018-09-08T19:13:11.285Z,3.87
2018-09-08T19:16:15.222Z,3.70
2018-09-08T19:19:19.101Z,4.37
2018-09-08T19:22:23.040Z,3.57
2018-09-08T19:25:26.935Z,4.00
2018-09-08T19:28:30.822Z,4.57
2018-09-08T19:31:34.722Z,3.73
2018-09-08T19:34:38.628Z,4.40
2018-09-08T19:37:42.385Z,3.97
2018-09-08T19:40:47.227Z,4.00
2018-09-08T19:43:51.072Z,4.00
2018-09-08T19:47:00.671Z,3.90
2018-09-08T19:50:04.593Z,4.27
2018-09-08T19:53:13.473Z,4.13
2018-09-08T19:56:17.400Z,3.80
2018-09-08T19:59:21.326Z,3.83
2018-09-08T20:02:25.161Z,3.60
2018-09-08T20:05:28.911Z,4.07
2018-09-08T20:08:32.808Z,4.93
2018-09-08T20:11:36.458Z,4.50
2018-09-08T20:14:40.297Z,4.83
2018-09-08T20:17:43.952Z,4.13
2018-09-08T20:20:47.601Z,4.27
2018-09-08T20:23:51.393Z,4.13
2018-09-08T20:26:55.174Z,4.43
2018-09-08T20:29:58.868Z,4.17
2018-09-08T20:33:02.613Z,4.30
2018-09-08T20:36:06.361Z,4.23
2018-09-08T20:39:10.148Z,4.00
2018-09-08T20:42:14.302Z,4.73
2018-09-08T20:45:17.986Z,4.13
2018-09-08T20:48:21.691Z,4.20
2018-09-08T20:51:25.792Z,4.27
2018-09-08T20:54:29.513Z,5.80
2018-09-08T20:57:33.173Z,5.17
2018-09-08T21:00:37.916Z,4.10
2018-09-08T21:03:41.706Z,4.10
2018-09-08T21:06:45.535Z,4.50
2018-09-08T21:09:49.272Z,4.27
2018-09-08T21:12:53.021Z,4.30
2018-09-08T21:15:56.656Z,4.20
2018-09-08T21:19:00.625Z,4.30
2018-09-08T21:22:05.528Z,3.73
2018-09-08T21:25:09.294Z,5.53
2018-09-08T21:28:14.794Z,4.03
2018-09-08T21:31:20.856Z,4.00
2018-09-08T21:34:25.490Z,4.00
2018-09-08T21:37:30.232Z,3.93
2018-09-08T21:40:33.903Z,3.57
2018-09-08T21:43:37.783Z,3.77
2018-09-08T21:46:41.544Z,3.97
2018-09-08T21:49:45.268Z,4.40
2018-09-08T21:52:49.133Z,4.53
2018-09-08T21:55:52.902Z,4.20
2018-09-08T21:58:56.614Z,3.80
2018-09-08T22:02:00.887Z,4.50
2018-09-08T22:05:05.472Z,4.23
2018-09-08T22:08:09.319Z,4.23
2018-09-08T22:11:13.102Z,4.00
2018-09-08T22:14:16.849Z,3.80
2018-09-08T22:17:20.516Z,4.10
2018-09-08T22:20:24.395Z,4.53
2018-09-08T22:23:28.094Z,3.90
2018-09-08T22:26:31.813Z,4.07
2018-09-08T22:29:35.739Z,4.20
2018-09-08T22:32:39.455Z,4.50
2018-09-08T22:35:43.184Z,4.20
2018-09-08T22:38:46.945Z,4.10
2018-09-08T22:41:50.628Z,4.70
2018-09-08T22:44:54.469Z,4.57
2018-09-08T22:47:58.184Z,4.03
2018-09-08T22:51:01.920Z,4.20
2018-09-08T22:54:05.599Z,4.30
2018-09-08T22:57:09.371Z,4.20
2018-09-08T23:00:13.114Z,3.87
2018-09-08T23:03:16.785Z,4.57
2018-09-08T23:06:20.598Z,3.90
2018-09-08T23:09:24.322Z,4.10
2018-09-08T23:12:28.089Z,4.30
2018-09-08T23:15:31.874Z,4.07
2018-09-08T23:18:35.452Z,4.43
2018-09-08T23:21:39.272Z,4.40
2018-09-08T23:24:42.890Z,4.00
2018-09-08T23:27:46.608Z,3.87
2018-09-08T23:30:50.322Z,4.70
2018-09-08T23:33:54.006Z,4.27
2018-09-08T23:36:57.747Z,4.10
2018-09-08T23:40:01.470Z,4.13
2018-09-08T23:43:05.140Z,4.40
2018-09-08T23:46:08.919Z,4.30
2018-09-08T23:49:12.544Z,4.30
2018-09-08T23:52:16.344Z,4.60
2018-09-08T23:55:19.980Z,4.13
2018-09-08T23:58:23.686Z,4.30
